San Francisco, California
Traffic Map
Current Weather Conditions
San Francisco, California
Broken Clouds
Broken Clouds
52°
Feels Like: 52°
Wind Chill: 52° Ceiling: 12000
Heat Index: 52° Visibility: 10mi
Dew Point: 46° Wind: 26mph
Humidity: 80% Direction: 280° (W)
Pressure: 30.08in Gusts: 0mph
Raw Report DataKSFO 260756Z 28023KT 10SM FEW011 BKN120 11/08 A3008 RMK AO2 PK WND 28027/0756 SLP185 T01110078 401610111
Traffic Incident Summary
Active as of:
Severity:
Category:
InformationThere was an issue retrieving the traffic information for this location. Please try a different location or try again shortly.
Advertisements
Track Severe Weather on mobile